Time;durP1;ratioP1;P1;durP2;ratioP2;P2;SDS_P1;SDS_P2;PMS_P1;PMS_P2;Temp;Humidity;BMP_temperature;BMP_pressure;BME280_temperature;BME280_humidity;BME280_pressure;Samples;Min_cycle;Max_cycle;Signal;HPM_P1;HPM_P2
2022/09/19 00:01:16;;;;;;;10.32;6.20;;;6.90;99.90;;;;;;5073555;28;20041;-76
2022/09/19 00:03:46;;;;;;;8.43;5.45;;;6.90;99.90;;;;;;5075890;28;20087;-76
2022/09/19 00:06:15;;;;;;;10.57;5.05;;;6.90;99.90;;;;;;5077278;28;20040;-76
2022/09/19 00:08:44;;;;;;;13.43;4.95;;;6.90;99.90;;;;;;5077549;28;20066;-76
2022/09/19 00:11:13;;;;;;;9.32;5.43;;;6.80;99.90;;;;;;5064728;28;20048;-76
2022/09/19 00:13:44;;;;;;;9.25;4.28;;;6.80;99.90;;;;;;5064362;28;20095;-76
2022/09/19 00:16:12;;;;;;;9.48;4.00;;;6.90;99.90;;;;;;5079067;28;20384;-76
2022/09/19 00:18:39;;;;;;;5.65;3.63;;;6.90;99.90;;;;;;5075285;28;20514;-76
2022/09/19 00:21:09;;;;;;;9.02;4.50;;;6.90;99.90;;;;;;5075067;28;20044;-77
2022/09/19 00:26:21;;;;;;;10.73;4.45;;;6.90;99.90;;;;;;5073301;28;20123;-76
2022/09/19 00:28:48;;;;;;;10.50;5.43;;;6.90;99.90;;;;;;5072864;28;20507;-75
2022/09/19 00:31:18;;;;;;;12.82;5.57;;;6.80;99.90;;;;;;5072362;28;20048;-75
2022/09/19 00:33:47;;;;;;;11.50;5.63;;;6.90;99.90;;;;;;5073010;28;20055;-76
2022/09/19 00:36:17;;;;;;;8.65;4.80;;;6.80;99.90;;;;;;5073001;28;20041;-76
2022/09/19 00:38:44;;;;;;;12.63;5.57;;;6.80;99.90;;;;;;5073436;28;20052;-76
2022/09/19 00:41:15;;;;;;;9.23;4.90;;;6.80;99.90;;;;;;5076040;28;20098;-76
2022/09/19 00:43:49;;;;;;;10.93;5.63;;;6.80;99.90;;;;;;5076840;28;20040;-76
2022/09/19 00:46:17;;;;;;;10.73;4.97;;;6.80;99.90;;;;;;5077487;28;20067;-75
2022/09/19 00:48:46;;;;;;;9.15;5.35;;;6.80;99.90;;;;;;5077265;28;20090;-76
2022/09/19 00:51:21;;;;;;;10.48;6.05;;;6.80;99.90;;;;;;5059659;28;20074;-76
2022/09/19 00:53:49;;;;;;;12.35;6.00;;;6.70;99.90;;;;;;5076927;28;20121;-76
2022/09/19 00:56:18;;;;;;;7.60;4.82;;;6.60;99.90;;;;;;5078859;28;20090;-76
2022/09/19 00:58:46;;;;;;;10.25;5.53;;;6.50;99.90;;;;;;5060916;28;20112;-75
2022/09/19 01:01:15;;;;;;;11.48;6.25;;;6.50;99.90;;;;;;5080477;28;20159;-76
2022/09/19 01:03:45;;;;;;;11.23;5.95;;;6.50;99.90;;;;;;5074694;28;20040;-75
2022/09/19 01:06:26;;;;;;;12.95;6.22;;;6.50;99.90;;;;;;5077118;28;20119;-75
2022/09/19 01:09:12;;;;;;;12.70;5.43;;;6.60;99.90;;;;;;5075930;28;20044;-77
2022/09/19 01:11:57;;;;;;;10.68;5.63;;;6.50;99.90;;;;;;5075544;28;20090;-76
2022/09/19 01:14:37;;;;;;;14.30;6.63;;;6.50;99.90;;;;;;5075034;28;20076;-74
2022/09/19 01:17:11;;;;;;;11.32;6.28;;;6.50;99.90;;;;;;5058995;28;20045;-76
2022/09/19 01:20:13;;;;;;;12.45;6.82;;;6.50;99.90;;;;;;5059118;28;20048;-76
2022/09/19 01:22:50;;;;;;;9.52;5.38;;;6.50;99.90;;;;;;5037791;28;20508;-76
2022/09/19 01:25:25;;;;;;;10.07;5.20;;;6.40;99.90;;;;;;5058653;28;20068;-76
2022/09/19 01:28:13;;;;;;;13.02;5.00;;;6.40;99.90;;;;;;5076205;28;20521;-77
2022/09/19 01:31:16;;;;;;;27.93;13.93;;;6.40;99.90;;;;;;5075324;28;20053;-76
2022/09/19 01:33:50;;;;;;;30.60;17.85;;;6.40;99.90;;;;;;5076128;28;20115;-76
2022/09/19 01:36:21;;;;;;;12.52;4.47;;;6.40;99.90;;;;;;5058457;28;20514;-76
2022/09/19 01:38:51;;;;;;;17.02;4.30;;;6.40;99.90;;;;;;5058351;28;20446;-77
2022/09/19 01:41:23;;;;;;;7.90;3.95;;;6.40;99.90;;;;;;5058461;28;20068;-76
2022/09/19 01:43:53;;;;;;;7.50;4.82;;;6.30;99.90;;;;;;5074322;28;20036;-77
2022/09/19 01:46:28;;;;;;;11.25;4.78;;;6.40;99.90;;;;;;5076035;28;20049;-76
2022/09/19 01:49:06;;;;;;;9.20;4.43;;;6.40;99.90;;;;;;5075751;28;20040;-76
2022/09/19 01:51:40;;;;;;;9.30;4.40;;;6.30;99.90;;;;;;5057836;28;20052;-77
2022/09/19 01:54:22;;;;;;;8.65;4.20;;;6.30;99.90;;;;;;5058878;28;20141;-77
2022/09/19 01:57:14;;;;;;;8.65;3.97;;;6.30;99.90;;;;;;5059932;28;20052;-76
2022/09/19 02:00:02;;;;;;;8.23;3.72;;;6.30;99.90;;;;;;5058226;28;20499;-76
2022/09/19 02:02:39;;;;;;;8.48;4.18;;;6.20;99.90;;;;;;5074072;28;20098;-76
2022/09/19 02:05:13;;;;;;;9.95;4.28;;;6.20;99.90;;;;;;5038436;28;20068;-75
2022/09/19 02:07:50;;;;;;;7.85;3.47;;;6.10;99.90;;;;;;5039439;28;20049;-76
2022/09/19 02:10:22;;;;;;;7.68;3.35;;;6.20;99.90;;;;;;5037621;28;20059;-76
2022/09/19 02:12:53;;;;;;;6.45;3.38;;;6.20;99.90;;;;;;5039309;28;20072;-76
2022/09/19 02:15:46;;;;;;;6.28;3.53;;;6.10;99.90;;;;;;5057620;28;20049;-76
2022/09/19 02:18:23;;;;;;;10.18;4.22;;;6.10;99.90;;;;;;5057666;28;20098;-76
2022/09/19 02:20:56;;;;;;;12.15;5.38;;;6.10;99.90;;;;;;5057397;28;20102;-77
2022/09/19 02:23:27;;;;;;;10.25;5.18;;;6.10;99.90;;;;;;5059295;28;20048;-76
2022/09/19 02:25:59;;;;;;;17.52;5.25;;;6.00;99.90;;;;;;5062391;28;20052;-75
2022/09/19 02:28:36;;;;;;;11.65;5.15;;;6.00;99.90;;;;;;5049367;28;20045;-75
2022/09/19 02:31:07;;;;;;;11.60;5.47;;;6.00;99.90;;;;;;5040982;28;20055;-76
2022/09/19 02:33:42;;;;;;;11.80;5.55;;;6.00;99.90;;;;;;5059349;28;20064;-75
2022/09/19 02:36:16;;;;;;;9.73;4.88;;;6.00;99.90;;;;;;5040988;28;20068;-74
2022/09/19 02:38:50;;;;;;;8.32;4.80;;;6.00;99.90;;;;;;5021241;28;20049;-76
2022/09/19 02:41:36;;;;;;;8.63;3.80;;;5.90;99.90;;;;;;5020066;28;20060;-76
2022/09/19 02:44:13;;;;;;;8.10;3.25;;;5.90;99.90;;;;;;5017449;28;20038;-76
2022/09/19 02:46:49;;;;;;;10.65;4.32;;;6.00;99.90;;;;;;5035553;28;20044;-76
2022/09/19 02:49:21;;;;;;;6.22;3.55;;;6.00;99.90;;;;;;5035882;28;20116;-76
2022/09/19 02:51:54;;;;;;;6.32;3.63;;;6.00;99.90;;;;;;5048291;28;20392;-76
2022/09/19 02:54:28;;;;;;;7.28;3.67;;;6.00;99.90;;;;;;5045249;28;20044;-76
2022/09/19 02:57:00;;;;;;;7.32;3.42;;;5.90;99.90;;;;;;5060349;28;20049;-75
2022/09/19 02:59:33;;;;;;;8.27;3.42;;;5.80;99.90;;;;;;5057046;28;20044;-76
2022/09/19 03:02:06;;;;;;;5.40;3.42;;;5.90;99.90;;;;;;5055448;28;20135;-75
2022/09/19 03:04:38;;;;;;;8.68;3.65;;;5.90;99.90;;;;;;5073787;28;20477;-74
2022/09/19 03:07:11;;;;;;;6.32;4.07;;;5.90;99.90;;;;;;5074779;28;20051;-73
2022/09/19 03:09:45;;;;;;;8.80;4.10;;;5.90;99.90;;;;;;5058989;28;20131;-73
2022/09/19 03:12:19;;;;;;;8.85;4.18;;;5.90;99.90;;;;;;5089359;28;20055;-72
2022/09/19 03:14:48;;;;;;;6.47;3.83;;;5.80;99.90;;;;;;5072826;28;20044;-73
2022/09/19 03:17:22;;;;;;;7.30;4.07;;;5.80;99.90;;;;;;5072510;28;20048;-73
2022/09/19 03:19:49;;;;;;;7.18;3.60;;;5.90;99.90;;;;;;5072754;28;20044;-73
2022/09/19 03:22:18;;;;;;;7.32;3.42;;;5.90;99.90;;;;;;5071918;28;20044;-72
2022/09/19 03:24:46;;;;;;;7.13;3.17;;;5.90;99.90;;;;;;5086551;28;20040;-73
2022/09/19 03:27:13;;;;;;;7.57;3.50;;;6.00;99.90;;;;;;5064721;28;20056;-73
2022/09/19 03:29:41;;;;;;;6.32;3.47;;;6.10;99.90;;;;;;5039594;28;20059;-73
2022/09/19 03:32:09;;;;;;;6.65;3.95;;;6.10;99.90;;;;;;5070373;28;20044;-73
2022/09/19 03:34:39;;;;;;;10.57;4.70;;;6.10;99.90;;;;;;5075284;28;20094;-72
2022/09/19 03:37:08;;;;;;;11.45;6.82;;;6.10;99.90;;;;;;5074057;28;20101;-72
2022/09/19 03:39:36;;;;;;;11.88;7.70;;;6.20;99.90;;;;;;5056691;28;20052;-71
2022/09/19 03:42:05;;;;;;;15.43;7.68;;;6.20;99.90;;;;;;5063893;28;20040;-72
2022/09/19 03:44:33;;;;;;;15.48;9.50;;;6.30;99.90;;;;;;5054824;28;20114;-72
2022/09/19 03:47:00;;;;;;;16.27;9.77;;;6.30;99.90;;;;;;5056653;28;20056;-73
2022/09/19 03:49:29;;;;;;;17.67;9.55;;;6.30;99.90;;;;;;5052849;28;20045;-73
2022/09/19 03:51:59;;;;;;;18.30;9.40;;;6.30;99.90;;;;;;5051360;28;20056;-73
2022/09/19 03:54:27;;;;;;;16.42;10.40;;;6.30;99.90;;;;;;5056147;28;20132;-73
2022/09/19 03:56:55;;;;;;;18.38;11.07;;;6.30;99.90;;;;;;5056256;28;20048;-70
2022/09/19 03:59:24;;;;;;;11.90;7.50;;;6.30;99.90;;;;;;5056368;28;20076;-70
2022/09/19 04:01:54;;;;;;;10.63;7.30;;;6.30;99.90;;;;;;5069069;28;20083;-70
2022/09/19 04:04:22;;;;;;;15.43;6.88;;;6.20;99.90;;;;;;5073506;28;20047;-71
2022/09/19 04:06:54;;;;;;;11.32;6.00;;;6.20;99.90;;;;;;5035137;28;20045;-72
2022/09/19 04:09:23;;;;;;;12.82;5.30;;;6.20;99.90;;;;;;5034021;28;20045;-72
2022/09/19 04:11:55;;;;;;;7.85;4.47;;;6.10;99.90;;;;;;5033831;28;20063;-71
2022/09/19 04:14:22;;;;;;;8.75;4.75;;;6.00;99.90;;;;;;5033197;28;20048;-70
2022/09/19 04:16:50;;;;;;;8.18;4.28;;;6.00;99.90;;;;;;5036010;28;20044;-71
2022/09/19 04:19:17;;;;;;;6.72;4.80;;;6.10;99.90;;;;;;5055971;28;20052;-72
2022/09/19 04:22:05;;;;;;;9.02;4.65;;;6.10;99.90;;;;;;5060272;28;20113;-70
2022/09/19 04:24:43;;;;;;;5.60;3.38;;;6.10;99.90;;;;;;5044177;28;20085;-70
2022/09/19 04:27:32;;;;;;;5.78;3.95;;;6.10;99.90;;;;;;5035800;28;20052;-71
2022/09/19 04:30:00;;;;;;;13.80;9.50;;;6.10;99.90;;;;;;5052468;28;20084;-70
2022/09/19 04:32:30;;;;;;;7.75;4.40;;;6.20;99.90;;;;;;5035666;28;20052;-72
2022/09/19 04:34:59;;;;;;;6.65;3.60;;;6.20;99.90;;;;;;5053856;28;20049;-71
2022/09/19 04:37:28;;;;;;;7.05;4.25;;;6.20;99.90;;;;;;5035780;28;20128;-70
2022/09/19 04:40:08;;;;;;;7.72;3.85;;;6.30;99.90;;;;;;5035406;28;20053;-72
2022/09/19 04:42:35;;;;;;;10.02;4.60;;;6.30;99.90;;;;;;5051728;28;20068;-70
2022/09/19 04:45:05;;;;;;;10.27;5.18;;;6.30;99.90;;;;;;5052178;28;20059;-70
2022/09/19 04:47:40;;;;;;;10.48;5.22;;;6.30;99.90;;;;;;5035459;28;20469;-70
2022/09/19 04:50:09;;;;;;;12.60;5.28;;;6.40;99.90;;;;;;5035452;28;20186;-70
2022/09/19 04:52:39;;;;;;;9.18;4.45;;;6.40;99.90;;;;;;5053958;28;20068;-71
2022/09/19 04:55:10;;;;;;;9.88;4.75;;;6.40;99.90;;;;;;5035361;28;20048;-70
2022/09/19 04:57:37;;;;;;;11.00;4.85;;;6.40;99.90;;;;;;5034898;28;20053;-70
2022/09/19 05:00:12;;;;;;;11.75;5.03;;;6.50;99.90;;;;;;5035469;28;20052;-70
2022/09/19 05:02:43;;;;;;;9.05;4.68;;;6.60;99.90;;;;;;5035416;28;20049;-71
2022/09/19 05:05:10;;;;;;;10.00;4.28;;;6.60;99.90;;;;;;5035169;28;20056;-70
2022/09/19 05:07:39;;;;;;;9.18;4.38;;;6.70;99.90;;;;;;5035919;28;20099;-70
2022/09/19 05:10:11;;;;;;;15.52;5.35;;;6.70;99.90;;;;;;5035438;28;20047;-71
2022/09/19 05:12:40;;;;;;;12.57;5.18;;;6.80;99.90;;;;;;5035773;28;20049;-70
2022/09/19 05:15:08;;;;;;;17.20;5.60;;;6.90;99.90;;;;;;5052636;28;20041;-70
2022/09/19 05:17:37;;;;;;;20.42;6.50;;;7.00;99.90;;;;;;5035780;28;20090;-70
2022/09/19 05:20:07;;;;;;;13.25;6.00;;;7.10;99.90;;;;;;5051798;28;20057;-71
2022/09/19 05:22:35;;;;;;;16.95;6.95;;;7.10;99.90;;;;;;5035040;28;20140;-71
2022/09/19 05:25:04;;;;;;;20.58;8.15;;;7.20;99.90;;;;;;5038006;28;20473;-70
2022/09/19 05:27:35;;;;;;;17.33;7.85;;;7.10;99.90;;;;;;5042235;28;20159;-70
2022/09/19 05:30:03;;;;;;;13.63;7.63;;;7.10;99.90;;;;;;5038972;28;20072;-71
2022/09/19 05:32:34;;;;;;;26.70;10.13;;;7.10;99.90;;;;;;5039940;28;20069;-70
2022/09/19 05:35:08;;;;;;;29.02;15.85;;;7.20;99.90;;;;;;5055515;28;20496;-71
2022/09/19 05:37:46;;;;;;;32.30;16.88;;;7.30;99.90;;;;;;5039349;28;20144;-70
2022/09/19 05:40:32;;;;;;;24.25;13.00;;;7.40;99.90;;;;;;5055227;28;20126;-71
2022/09/19 05:43:24;;;;;;;14.27;8.02;;;7.60;99.90;;;;;;5055990;28;20102;-70
2022/09/19 05:45:52;;;;;;;13.25;7.80;;;7.80;99.90;;;;;;5055012;28;20128;-71
2022/09/19 05:48:20;;;;;;;14.43;8.00;;;7.90;99.90;;;;;;5038687;28;20041;-71
2022/09/19 05:50:49;;;;;;;17.02;10.63;;;8.00;99.90;;;;;;5055050;28;20048;-72
2022/09/19 05:56:15;;;;;;;22.17;10.55;;;8.10;99.90;;;;;;5038598;28;20098;-70
2022/09/19 05:58:52;;;;;;;22.10;12.95;;;8.20;99.90;;;;;;5056267;28;20055;-70
2022/09/19 06:01:19;;;;;;;21.92;9.32;;;8.20;99.90;;;;;;5055895;28;20068;-70
2022/09/19 06:03:46;;;;;;;31.70;17.23;;;8.30;99.90;;;;;;5055898;28;20037;-71
2022/09/19 06:06:18;;;;;;;22.85;14.98;;;8.40;99.90;;;;;;5037772;28;20502;-71
2022/09/19 06:08:47;;;;;;;51.03;29.00;;;8.40;99.90;;;;;;5037937;28;20491;-70
2022/09/19 06:11:16;;;;;;;43.45;23.35;;;8.60;99.90;;;;;;5055033;28;20064;-71
2022/09/19 06:16:30;;;;;;;36.70;21.10;;;8.70;99.90;;;;;;5028878;28;20136;-70
2022/09/19 06:19:16;;;;;;;31.70;19.23;;;8.80;99.90;;;;;;5048145;28;20172;-70
2022/09/19 06:21:45;;;;;;;33.00;21.02;;;8.80;99.90;;;;;;5038029;28;20475;-70
2022/09/19 06:24:12;;;;;;;31.70;19.00;;;8.80;99.90;;;;;;5037860;28;20138;-70
2022/09/19 06:26:39;;;;;;;38.22;18.63;;;8.90;99.90;;;;;;5038667;28;20045;-71
2022/09/19 06:29:07;;;;;;;26.88;16.55;;;8.90;99.90;;;;;;5055809;28;20558;-70
2022/09/19 06:31:36;;;;;;;31.40;17.58;;;9.00;99.90;;;;;;5037670;28;20060;-70
2022/09/19 06:34:18;;;;;;;25.58;15.00;;;9.20;99.90;;;;;;5037836;28;20045;-71
2022/09/19 06:36:45;;;;;;;23.23;14.43;;;9.40;99.90;;;;;;5036281;28;20069;-71
2022/09/19 06:39:12;;;;;;;24.23;14.30;;;9.50;99.90;;;;;;5055178;28;20095;-69
2022/09/19 06:41:42;;;;;;;18.45;10.55;;;9.70;99.90;;;;;;5037239;28;20060;-69
2022/09/19 06:44:17;;;;;;;23.70;11.95;;;9.90;99.90;;;;;;5037457;28;20108;-70
2022/09/19 06:47:08;;;;;;;23.70;14.13;;;10.10;99.90;;;;;;5037161;28;20048;-70
2022/09/19 06:50:00;;;;;;;23.40;12.73;;;10.30;99.90;;;;;;5054880;28;20523;-69
2022/09/19 06:52:35;;;;;;;20.40;12.32;;;10.50;99.90;;;;;;5038846;28;20099;-69
2022/09/19 06:55:05;;;;;;;21.73;11.95;;;10.80;99.90;;;;;;5037845;28;20048;-69
2022/09/19 06:57:34;;;;;;;21.08;9.88;;;11.00;99.90;;;;;;5056137;28;20124;-70
2022/09/19 07:00:02;;;;;;;20.38;10.07;;;11.10;99.90;;;;;;5039327;28;20049;-70
2022/09/19 07:02:33;;;;;;;14.43;8.82;;;11.40;99.90;;;;;;5036666;28;20076;-69
2022/09/19 07:05:00;;;;;;;15.70;7.72;;;11.40;99.90;;;;;;5036470;28;20041;-69
2022/09/19 07:07:51;;;;;;;9.27;5.97;;;11.50;99.90;;;;;;5036616;28;20508;-68
2022/09/19 07:10:20;;;;;;;12.68;6.70;;;11.70;99.90;;;;;;5036595;28;20049;-70
2022/09/19 07:12:55;;;;;;;15.80;6.60;;;11.70;99.90;;;;;;5054311;28;20076;-70
2022/09/19 07:15:23;;;;;;;14.27;6.40;;;11.70;99.90;;;;;;5036281;28;20048;-69
2022/09/19 07:17:54;;;;;;;13.48;6.88;;;11.90;99.90;;;;;;5035585;28;20290;-70
2022/09/19 07:20:22;;;;;;;13.25;7.38;;;12.00;99.90;;;;;;5054508;28;20408;-70
2022/09/19 07:23:01;;;;;;;12.25;6.30;;;12.20;99.90;;;;;;5052869;28;20530;-69
2022/09/19 07:25:48;;;;;;;12.40;6.50;;;12.30;99.90;;;;;;5036615;28;20508;-69
2022/09/19 07:28:19;;;;;;;16.05;7.63;;;12.10;99.90;;;;;;5036786;28;20049;-71
2022/09/19 07:30:47;;;;;;;14.25;7.90;;;12.00;99.90;;;;;;5042524;28;20522;-71
2022/09/19 07:33:19;;;;;;;23.80;10.73;;;11.90;99.90;;;;;;5059363;28;20064;-70
2022/09/19 07:35:47;;;;;;;22.98;10.73;;;11.70;99.90;;;;;;5033332;28;20132;-69
2022/09/19 07:38:18;;;;;;;21.08;13.23;;;11.60;99.90;;;;;;5030506;28;20049;-69
2022/09/19 07:41:04;;;;;;;32.63;12.20;;;11.60;99.90;;;;;;5073176;28;20175;-69
2022/09/19 07:43:38;;;;;;;18.95;10.65;;;11.60;99.90;;;;;;5055859;28;20049;-70
2022/09/19 07:46:15;;;;;;;17.92;9.02;;;11.60;99.90;;;;;;5073623;28;20049;-71
2022/09/19 07:48:49;;;;;;;19.73;11.20;;;11.80;99.90;;;;;;5036235;28;20060;-69
2022/09/19 07:51:23;;;;;;;22.83;11.60;;;12.00;99.90;;;;;;5035944;28;20473;-70
2022/09/19 07:53:51;;;;;;;20.63;13.85;;;12.10;99.90;;;;;;5035581;28;20056;-70
2022/09/19 07:56:19;;;;;;;35.65;20.42;;;12.30;99.90;;;;;;5052529;28;20076;-69
2022/09/19 07:58:47;;;;;;;33.42;17.50;;;12.40;99.90;;;;;;5052354;28;20045;-70
2022/09/19 08:01:14;;;;;;;30.90;15.20;;;12.60;99.90;;;;;;5053763;28;20039;-68
2022/09/19 08:04:12;;;;;;;27.95;11.25;;;12.60;99.90;;;;;;5038378;28;20433;-69
2022/09/19 08:06:50;;;;;;;11.70;7.55;;;12.70;99.90;;;;;;5035746;28;20398;-70
2022/09/19 08:09:19;;;;;;;11.18;7.38;;;12.60;99.90;;;;;;5035665;28;20155;-69
2022/09/19 08:12:22;;;;;;;11.50;6.97;;;12.60;99.90;;;;;;5042577;28;20055;-70
2022/09/19 08:14:59;;;;;;;8.73;5.05;;;12.60;99.90;;;;;;5035625;28;20049;-70
2022/09/19 08:17:26;;;;;;;6.75;4.15;;;12.60;99.90;;;;;;5035283;28;20049;-70
2022/09/19 08:19:56;;;;;;;9.05;4.85;;;12.50;99.90;;;;;;5035369;28;20136;-70
2022/09/19 08:22:24;;;;;;;13.13;4.40;;;12.50;99.90;;;;;;5035606;28;20052;-70
2022/09/19 08:25:01;;;;;;;9.73;5.53;;;12.50;99.90;;;;;;5035531;28;20045;-70
2022/09/19 08:27:30;;;;;;;8.20;4.85;;;12.40;99.90;;;;;;5035691;28;20155;-70
2022/09/19 08:29:59;;;;;;;10.45;4.15;;;12.40;99.90;;;;;;5037441;28;20519;-70
2022/09/19 08:32:27;;;;;;;16.23;7.63;;;12.30;99.90;;;;;;5035455;28;20139;-72
2022/09/19 08:34:56;;;;;;;13.35;7.78;;;12.30;99.90;;;;;;5036200;28;20446;-70
2022/09/19 08:37:24;;;;;;;8.43;5.60;;;12.30;99.90;;;;;;5035237;28;20500;-70
2022/09/19 08:42:49;;;;;;;13.27;8.40;;;12.20;99.90;;;;;;5045290;28;20114;-70
2022/09/19 08:45:24;;;;;;;11.57;7.20;;;12.30;99.90;;;;;;5052271;28;20041;-70
2022/09/19 08:47:52;;;;;;;10.32;6.75;;;12.30;99.90;;;;;;5058581;28;20074;-70
2022/09/19 08:50:28;;;;;;;20.02;13.65;;;12.30;99.90;;;;;;5058849;28;20489;-70
2022/09/19 08:53:05;;;;;;;16.92;10.55;;;12.30;99.90;;;;;;5052946;28;20053;-70
2022/09/19 08:55:35;;;;;;;16.65;10.88;;;12.40;99.90;;;;;;5052448;28;20041;-69
2022/09/19 08:58:17;;;;;;;12.07;8.25;;;12.50;99.90;;;;;;5047973;28;20103;-69
2022/09/19 09:01:08;;;;;;;18.42;11.70;;;12.60;99.90;;;;;;5026357;28;20057;-70
2022/09/19 09:03:53;;;;;;;20.67;11.20;;;12.80;99.90;;;;;;5035373;28;20049;-71
2022/09/19 09:06:33;;;;;;;16.38;10.80;;;12.70;99.90;;;;;;5035528;28;20413;-71
2022/09/19 09:09:08;;;;;;;12.98;9.25;;;12.80;99.90;;;;;;5035378;28;20420;-70
2022/09/19 09:11:53;;;;;;;7.22;4.88;;;12.60;99.90;;;;;;5036239;28;20045;-69
2022/09/19 09:14:29;;;;;;;7.65;6.57;;;12.40;99.90;;;;;;5035702;28;20072;-70
2022/09/19 09:17:12;;;;;;;8.27;6.45;;;12.40;99.90;;;;;;5035218;28;20144;-70
2022/09/19 09:20:08;;;;;;;10.07;7.00;;;12.40;99.90;;;;;;5035246;28;20042;-70
2022/09/19 09:22:41;;;;;;;9.43;6.30;;;12.50;99.90;;;;;;5034765;28;20061;-69
2022/09/19 09:25:30;;;;;;;8.98;6.82;;;12.50;99.90;;;;;;5036534;28;20117;-71
2022/09/19 09:28:06;;;;;;;9.13;6.45;;;12.50;99.90;;;;;;5034903;28;20426;-70
2022/09/19 09:31:07;;;;;;;10.13;6.97;;;12.30;99.90;;;;;;5036696;28;20514;-72
2022/09/19 09:33:37;;;;;;;7.88;6.55;;;12.30;99.90;;;;;;5035010;28;20049;-70
2022/09/19 09:36:12;;;;;;;15.90;8.07;;;12.30;99.90;;;;;;5035328;28;20049;-69
2022/09/19 09:38:48;;;;;;;15.73;9.55;;;12.40;99.90;;;;;;5038634;28;20065;-70
2022/09/19 09:44:31;;;;;;;9.98;7.10;;;12.40;99.90;;;;;;5038849;28;20068;-71
2022/09/19 09:47:15;;;;;;;17.58;8.13;;;12.40;99.90;;;;;;5039502;28;20118;-70
2022/09/19 09:49:43;;;;;;;15.40;9.57;;;12.40;99.90;;;;;;5056480;28;20448;-70
2022/09/19 09:52:25;;;;;;;10.80;5.75;;;12.50;99.90;;;;;;5039227;28;20136;-70
2022/09/19 09:58:04;;;;;;;13.20;7.63;;;12.40;99.90;;;;;;5070515;28;20060;-71
2022/09/19 10:03:35;;;;;;;20.63;12.43;;;12.50;99.90;;;;;;5076733;28;20036;-70
2022/09/19 10:06:13;;;;;;;21.08;14.20;;;12.50;99.90;;;;;;5059082;28;20392;-71
2022/09/19 10:08:47;;;;;;;21.33;15.20;;;12.60;99.90;;;;;;5076554;28;20115;-70
2022/09/19 10:11:34;;;;;;;24.92;15.23;;;12.50;99.90;;;;;;5074635;28;20060;-70
2022/09/19 10:14:02;;;;;;;22.95;17.75;;;12.60;99.90;;;;;;5057588;28;20079;-71
2022/09/19 10:16:34;;;;;;;27.45;19.20;;;12.50;99.90;;;;;;5057778;28;20079;-71
2022/09/19 10:19:27;;;;;;;31.92;20.75;;;12.40;99.90;;;;;;5057792;28;20072;-72
2022/09/19 10:21:57;;;;;;;28.20;19.45;;;12.30;99.90;;;;;;5057693;28;20051;-72
2022/09/19 10:24:52;;;;;;;23.95;17.55;;;12.20;99.90;;;;;;5057712;28;20488;-72
2022/09/19 10:27:27;;;;;;;27.55;21.35;;;12.00;99.90;;;;;;5075926;28;20419;-72
2022/09/19 10:30:01;;;;;;;39.92;23.75;;;12.00;99.90;;;;;;5057446;28;20048;-74
2022/09/19 10:32:37;;;;;;;29.75;20.92;;;11.90;99.90;;;;;;5057025;28;20131;-72
2022/09/19 10:35:26;;;;;;;29.77;23.50;;;11.90;99.90;;;;;;5075812;28;20052;-72
2022/09/19 10:37:59;;;;;;;30.17;23.30;;;11.80;99.90;;;;;;5054285;28;20069;-71
2022/09/19 10:40:28;;;;;;;33.83;24.50;;;11.80;99.90;;;;;;5039034;28;20041;-71
2022/09/19 10:42:59;;;;;;;28.73;22.50;;;11.70;99.90;;;;;;5037361;28;20052;-72
2022/09/19 10:45:32;;;;;;;42.58;25.88;;;11.60;99.90;;;;;;5037100;28;20041;-71
2022/09/19 10:48:03;;;;;;;44.33;30.60;;;11.50;99.90;;;;;;5037302;28;20512;-73
2022/09/19 10:50:32;;;;;;;39.53;30.42;;;11.40;99.90;;;;;;5036965;28;20500;-74
2022/09/19 10:53:18;;;;;;;48.92;35.35;;;11.30;99.90;;;;;;5036999;28;20507;-73
2022/09/19 10:55:47;;;;;;;55.97;41.20;;;11.30;99.90;;;;;;5037465;28;20523;-72
2022/09/19 10:58:19;;;;;;;60.05;45.97;;;11.10;99.90;;;;;;5021904;28;20068;-72
2022/09/19 11:00:56;;;;;;;58.80;40.47;;;11.10;99.90;;;;;;5017948;28;20140;-73
2022/09/19 11:03:30;;;;;;;53.33;37.83;;;11.10;99.90;;;;;;5033474;28;20136;-73
2022/09/19 11:06:10;;;;;;;54.03;37.97;;;11.20;99.90;;;;;;5033793;28;20095;-73
2022/09/19 11:08:44;;;;;;;51.55;35.50;;;11.40;99.90;;;;;;5034577;28;20079;-73
2022/09/19 11:11:36;;;;;;;44.95;31.35;;;11.50;99.90;;;;;;5030730;28;20045;-73
2022/09/19 11:14:19;;;;;;;43.50;30.08;;;11.60;99.90;;;;;;5033220;28;20049;-72
2022/09/19 11:17:16;;;;;;;39.72;26.95;;;11.70;99.90;;;;;;5036400;28;20073;-72
2022/09/19 11:20:03;;;;;;;38.90;27.80;;;11.80;99.90;;;;;;5036617;28;20045;-72
2022/09/19 11:22:44;;;;;;;37.85;26.08;;;12.00;99.90;;;;;;5034088;28;20135;-73
2022/09/19 11:25:18;;;;;;;35.58;25.85;;;12.00;99.90;;;;;;5036121;28;20415;-71
2022/09/19 11:28:16;;;;;;;37.40;25.33;;;12.00;99.90;;;;;;5035875;28;20080;-71
2022/09/19 11:30:56;;;;;;;38.20;26.90;;;11.90;99.90;;;;;;5036603;28;20055;-72
2022/09/19 11:33:41;;;;;;;40.08;27.45;;;11.90;99.90;;;;;;5037301;28;20049;-70
2022/09/19 11:36:37;;;;;;;40.33;25.25;;;11.90;99.90;;;;;;5053270;28;20055;-72
2022/09/19 11:39:09;;;;;;;34.85;24.20;;;12.00;99.90;;;;;;5035473;28;20559;-72
2022/09/19 11:41:54;;;;;;;32.63;20.48;;;12.00;99.90;;;;;;5052462;28;20499;-72
2022/09/19 11:44:39;;;;;;;38.20;23.67;;;12.00;99.90;;;;;;5035451;28;20049;-71
2022/09/19 11:47:16;;;;;;;;;;;12.00;99.90;;;;;;5036728;28;20045;-71
2022/09/19 11:50:11;;;;;;;37.45;24.08;;;11.90;99.90;;;;;;5025382;28;20295;-71
2022/09/19 11:52:56;;;;;;;40.10;22.92;;;11.90;99.90;;;;;;5016420;28;20045;-72
2022/09/19 11:55:41;;;;;;;35.42;21.83;;;12.00;99.90;;;;;;5035234;28;20504;-70
2022/09/19 11:58:13;;;;;;;36.40;21.73;;;12.10;99.90;;;;;;5051934;28;20065;-71
2022/09/19 12:00:53;;;;;;;29.52;19.08;;;12.20;99.90;;;;;;5036770;28;20459;-71
2022/09/19 12:03:52;;;;;;;25.30;15.82;;;12.30;99.90;;;;;;5035645;28;20041;-73
2022/09/19 12:06:39;;;;;;;25.35;15.52;;;12.40;99.90;;;;;;5016707;28;20047;-70
2022/09/19 12:09:17;;;;;;;29.63;18.80;;;12.40;99.90;;;;;;5027184;28;20227;-69
2022/09/19 12:11:51;;;;;;;26.23;16.15;;;12.60;99.90;;;;;;5036394;28;20047;-70
2022/09/19 12:14:26;;;;;;;26.30;16.25;;;12.60;99.90;;;;;;5034873;28;20071;-70
2022/09/19 12:16:57;;;;;;;23.45;14.50;;;12.70;99.90;;;;;;5016846;28;20095;-70
2022/09/19 12:19:34;;;;;;;21.58;14.88;;;12.60;99.90;;;;;;5015843;28;20045;-69
2022/09/19 12:22:06;;;;;;;26.80;16.23;;;12.70;99.90;;;;;;5035297;28;20577;-69
2022/09/19 12:27:33;;;;;;;19.05;13.15;;;12.70;99.90;;;;;;5040056;28;20037;-70
2022/09/19 12:30:07;;;;;;;22.45;13.63;;;12.90;99.90;;;;;;5038232;28;20091;-70
2022/09/19 12:32:46;;;;;;;22.10;15.40;;;13.00;99.90;;;;;;5041202;28;20068;-70
2022/09/19 12:35:22;;;;;;;19.58;13.25;;;13.00;99.90;;;;;;5044511;28;20416;-70
2022/09/19 12:38:07;;;;;;;17.42;11.85;;;13.00;99.90;;;;;;5036407;28;20057;-70
2022/09/19 12:40:44;;;;;;;19.02;12.32;;;12.90;99.90;;;;;;5049225;28;20049;-72
2022/09/19 12:43:18;;;;;;;29.48;16.77;;;12.90;99.90;;;;;;5036928;28;20052;-71
2022/09/19 12:45:55;;;;;;;21.33;12.65;;;13.00;99.90;;;;;;5025022;28;20049;-70
2022/09/19 12:48:34;;;;;;;16.83;12.85;;;13.00;99.90;;;;;;5016390;28;20053;-70
2022/09/19 12:51:47;;;;;;;22.48;14.73;;;13.00;99.90;;;;;;5045884;28;20052;-71
2022/09/19 12:54:19;;;;;;;26.52;17.27;;;12.80;99.90;;;;;;5029534;28;20053;-70
2022/09/19 12:56:53;;;;;;;36.53;24.48;;;12.70;99.90;;;;;;5050150;28;20131;-70
2022/09/19 12:59:23;;;;;;;50.92;29.67;;;12.70;99.90;;;;;;5065608;28;20480;-70
2022/09/19 13:01:56;;;;;;;50.40;29.45;;;12.80;99.90;;;;;;5059551;28;20045;-71
2022/09/19 13:04:35;;;;;;;42.22;24.73;;;12.60;99.90;;;;;;5064155;28;20567;-70
2022/09/19 13:07:10;;;;;;;39.05;21.35;;;12.60;99.90;;;;;;5072697;28;20036;-70
2022/09/19 13:09:55;;;;;;;26.53;16.73;;;12.60;99.90;;;;;;5070066;28;20054;-71
2022/09/19 13:12:32;;;;;;;16.20;10.07;;;12.80;99.90;;;;;;5063032;28;20041;-70
2022/09/19 13:15:05;;;;;;;10.10;7.15;;;12.90;99.90;;;;;;5067932;28;20044;-70
2022/09/19 13:23:32;;;;;;;10.88;8.10;;;12.90;99.90;;;;;;5070903;28;20036;-70
2022/09/19 13:26:24;;;;;;;7.57;4.93;;;12.90;99.90;;;;;;5054456;28;20096;-71
2022/09/19 13:28:53;;;;;;;9.25;5.63;;;13.00;99.90;;;;;;5072002;28;20131;-70
2022/09/19 13:31:24;;;;;;;11.77;7.47;;;13.00;99.90;;;;;;5073529;28;20033;-76
2022/09/19 13:33:57;;;;;;;11.43;7.50;;;13.00;99.90;;;;;;5073473;28;20452;-69
2022/09/19 13:36:43;;;;;;;22.52;14.75;;;13.10;99.90;;;;;;5076365;28;20061;-72
2022/09/19 13:39:53;;;;;;;13.25;9.68;;;13.10;99.90;;;;;;5058350;28;20132;-76
2022/09/19 13:42:27;;;;;;;17.67;11.68;;;13.10;99.90;;;;;;5073996;28;20079;-68
2022/09/19 13:45:06;;;;;;;10.05;5.95;;;13.20;99.90;;;;;;5075788;28;20045;-69
2022/09/19 13:47:40;;;;;;;9.85;5.65;;;13.20;99.90;;;;;;5077315;28;20036;-68
2022/09/19 13:50:22;;;;;;;7.22;4.68;;;13.00;99.90;;;;;;5075748;28;20117;-69